Time;durP1;ratioP1;P1;durP2;ratioP2;P2;SDS_P1;SDS_P2;PMS_P1;PMS_P2;Temp;Humidity;BMP_temperature;BMP_pressure;BME280_temperature;BME280_humidity;BME280_pressure;Samples;Min_cycle;Max_cycle;Signal;HPM_P1;HPM_P2
2021/01/09 00:04:45;;;;;;;28.15;11.98;;;;;;;-1.01;60.77;98650.47;10462166;28;20040;-54
2021/01/09 00:09:47;;;;;;;25.95;10.35;;;;;;;-1.11;60.57;98644.94;10461826;28;20060;-54
2021/01/09 00:14:49;;;;;;;21.75;8.18;;;;;;;-1.19;60.53;98644.53;10462576;28;20041;-53
2021/01/09 00:19:51;;;;;;;27.15;11.60;;;;;;;-1.18;60.67;98649.59;10460950;28;20140;-54
2021/01/09 00:24:53;;;;;;;28.70;11.23;;;;;;;-1.11;60.29;98644.94;10460066;28;20061;-53
2021/01/09 00:29:55;;;;;;;28.20;12.00;;;;;;;-1.09;59.95;98643.13;10460023;28;20568;-55
2021/01/09 00:34:56;;;;;;;25.83;10.75;;;;;;;-1.12;60.14;98648.44;10460212;28;20056;-60
2021/01/09 00:39:59;;;;;;;31.35;12.05;;;;;;;-1.26;60.22;98641.47;10459785;28;20082;-53
2021/01/09 00:45:01;;;;;;;23.33;8.95;;;;;;;-1.37;60.10;98637.81;10461873;28;20152;-53
2021/01/09 00:50:04;;;;;;;25.60;10.77;;;;;;;-1.35;60.64;98630.81;10460375;28;20052;-57
2021/01/09 00:55:07;;;;;;;;;;;;;;;-1.33;60.63;98623.81;10459706;28;20139;-54
2021/01/09 01:00:10;;;;;;;28.27;9.90;;;;;;;-1.32;60.27;98630.66;10459116;28;19928;-54
2021/01/09 01:05:13;;;;;;;24.20;10.18;;;;;;;-1.40;60.50;98633.63;10458981;28;20049;-54
2021/01/09 01:10:15;;;;;;;32.35;14.05;;;;;;;-1.28;59.94;98643.28;10459166;28;20064;-55
2021/01/09 01:15:17;;;;;;;24.48;10.73;;;;;;;-1.22;59.64;98639.56;10458864;28;20045;-53
2021/01/09 01:20:18;;;;;;;23.20;8.02;;;;;;;-1.18;59.31;98641.03;10458629;28;20072;-55
2021/01/09 01:25:21;;;;;;;28.60;11.68;;;;;;;-1.28;59.52;98638.13;10458825;28;20049;-54
2021/01/09 01:30:23;;;;;;;25.13;12.23;;;;;;;-1.27;59.39;98629.47;10459684;28;20386;-54
2021/01/09 01:35:24;;;;;;;25.85;10.52;;;;;;;-1.37;59.90;98637.81;10462621;28;20519;-56
2021/01/09 01:40:27;;;;;;;28.15;12.27;;;;;;;-1.37;59.68;98633.47;10457808;28;20144;-53
2021/01/09 01:45:29;;;;;;;27.53;10.27;;;;;;;-1.44;59.62;98643.28;10460123;28;20045;-54
2021/01/09 01:50:32;;;;;;;27.17;11.73;;;;;;;-1.41;59.82;98625.06;10458455;28;20190;-53
2021/01/09 01:55:35;;;;;;;27.52;11.18;;;;;;;-1.33;59.50;98628.97;10458069;28;20064;-54
2021/01/09 02:00:37;;;;;;;27.33;9.88;;;;;;;-1.21;59.63;98625.75;10457244;28;20061;-54
2021/01/09 02:05:43;;;;;;;30.77;11.00;;;;;;;-1.35;59.61;98630.81;10456624;28;20056;-54
2021/01/09 02:10:50;;;;;;;29.25;13.30;;;;;;;-1.44;59.79;98643.28;10457645;28;20060;-53
2021/01/09 02:15:52;;;;;;;33.17;13.25;;;;;;;-1.43;59.94;98644.09;10457115;28;20159;-54
2021/01/09 02:21:04;;;;;;;26.92;10.05;;;;;;;-1.33;59.49;98627.22;10456397;28;20182;-54
2021/01/09 02:26:07;;;;;;;25.83;10.60;;;;;;;-1.40;60.04;98624.16;10458277;28;20045;-54
2021/01/09 02:31:09;;;;;;;20.95;9.57;;;;;;;-1.43;59.95;98629.47;10457874;28;20152;-53
2021/01/09 02:36:11;;;;;;;22.60;8.45;;;;;;;-1.37;60.11;98622.31;10457204;28;20048;-55
2021/01/09 02:41:15;;;;;;;24.60;8.98;;;;;;;-1.35;60.14;98623.09;10456408;28;20045;-53
2021/01/09 02:46:17;;;;;;;27.90;10.98;;;;;;;-1.34;59.69;98617.00;10456131;28;20053;-53
2021/01/09 02:51:18;;;;;;;24.27;9.52;;;;;;;-1.24;59.84;98623.31;10454794;28;20482;-53
2021/01/09 02:56:21;;;;;;;29.85;11.27;;;;;;;-1.15;59.77;98612.50;10455799;28;20049;-55
2021/01/09 03:01:27;;;;;;;27.45;11.13;;;;;;;-1.20;59.23;98619.66;10457126;28;20060;-55
2021/01/09 03:06:29;;;;;;;22.27;9.38;;;;;;;-1.33;59.27;98618.66;10455465;28;20045;-53
2021/01/09 03:11:31;;;;;;;25.10;9.93;;;;;;;-1.40;59.27;98613.84;10456327;28;20536;-53
2021/01/09 03:16:33;;;;;;;17.83;7.03;;;;;;;-1.37;58.90;98615.41;10456087;28;20056;-54
2021/01/09 03:21:34;;;;;;;17.15;6.28;;;;;;;-1.31;59.04;98611.69;10455890;28;20084;-53
2021/01/09 03:26:37;;;;;;;26.02;9.65;;;;;;;-1.26;59.06;98625.13;10457291;28;20084;-53
2021/01/09 03:31:39;;;;;;;26.27;9.70;;;;;;;-1.19;58.81;98629.91;10455803;28;20050;-55
2021/01/09 03:36:40;;;;;;;22.55;9.40;;;;;;;-1.20;58.79;98640.28;10454549;28;20052;-53
2021/01/09 03:41:43;;;;;;;26.33;10.25;;;;;;;-1.27;58.30;98633.81;10457559;28;20045;-53
2021/01/09 03:46:44;;;;;;;25.52;11.50;;;;;;;-1.35;58.49;98633.41;10455819;28;20477;-54
2021/01/09 03:51:46;;;;;;;25.75;10.20;;;;;;;-1.29;58.83;98638.19;10454574;28;20073;-55
2021/01/09 03:56:49;;;;;;;22.70;9.55;;;;;;;-1.25;58.29;98627.66;10454482;28;20140;-54
2021/01/09 04:01:50;;;;;;;18.95;6.40;;;;;;;-1.25;58.69;98631.97;10454516;28;20088;-54
2021/01/09 04:06:52;;;;;;;22.88;8.85;;;;;;;-1.33;58.71;98640.13;10461582;28;20469;-53
2021/01/09 04:11:55;;;;;;;24.33;10.50;;;;;;;-1.33;58.30;98644.44;10461934;28;20238;-54
2021/01/09 04:16:56;;;;;;;27.92;10.88;;;;;;;-1.36;58.51;98634.28;10462258;28;20045;-54
2021/01/09 04:21:58;;;;;;;24.83;8.65;;;;;;;-1.24;58.53;98634.47;10460251;28;20049;-54
2021/01/09 04:27:03;;;;;;;25.73;10.80;;;;;;;-1.25;58.23;98631.97;10459182;28;20143;-55
2021/01/09 04:32:05;;;;;;;22.80;9.35;;;;;;;-1.28;58.53;98637.31;10461464;28;20098;-53
2021/01/09 04:37:07;;;;;;;23.27;9.35;;;;;;;-1.39;59.03;98645.59;10460302;28;20094;-53
2021/01/09 04:42:10;;;;;;;24.98;9.75;;;;;;;-1.46;59.44;98636.53;10460270;28;20045;-54
2021/01/09 04:47:14;;;;;;;23.90;8.38;;;;;;;-1.44;59.68;98638.13;10459279;28;20359;-55
2021/01/09 04:52:17;;;;;;;20.08;7.45;;;;;;;-1.56;59.57;98643.09;10460043;28;20057;-53
2021/01/09 04:57:20;;;;;;;19.47;7.67;;;;;;;-1.49;59.85;98654.75;10459485;28;20842;-54
2021/01/09 05:02:22;;;;;;;24.90;10.13;;;;;;;-1.46;59.26;98650.25;10460243;28;20057;-54
2021/01/09 05:07:23;;;;;;;23.48;10.38;;;;;;;-1.57;59.00;98662.88;10460585;28;20139;-55
2021/01/09 05:12:31;;;;;;;25.23;9.73;;;;;;;-1.62;59.24;98652.81;10461213;28;20557;-55
2021/01/09 05:17:33;;;;;;;23.88;10.43;;;;;;;-1.61;58.89;98656.22;10460076;28;20052;-54
2021/01/09 05:22:37;;;;;;;27.70;12.70;;;;;;;-1.62;59.01;98655.38;10459326;28;20049;-54
2021/01/09 05:27:44;;;;;;;24.17;9.98;;;;;;;-1.51;58.96;98662.56;10459655;28;20143;-53
2021/01/09 05:32:46;;;;;;;21.33;8.43;;;;;;;-1.60;59.15;98660.47;10458725;28;20056;-54
2021/01/09 05:37:49;;;;;;;28.00;11.05;;;;;;;-1.56;58.76;98659.38;10459465;28;20064;-55
2021/01/09 05:42:51;;;;;;;22.87;9.27;;;;;;;-1.51;59.16;98653.97;10458502;28;20048;-54
2021/01/09 05:47:53;;;;;;;25.23;9.75;;;;;;;-1.43;58.79;98662.16;10458606;28;20485;-53
2021/01/09 05:52:55;;;;;;;23.05;9.43;;;;;;;-1.38;58.97;98667.09;10464437;28;20392;-52
2021/01/09 05:57:58;;;;;;;23.35;9.80;;;;;;;-1.33;59.18;98665.91;10457736;28;20048;-53
2021/01/09 06:03:11;;;;;;;24.70;10.63;;;;;;;-1.21;58.65;98665.25;10456459;28;20057;-53
2021/01/09 06:08:18;;;;;;;25.30;10.15;;;;;;;-1.15;58.61;98661.50;10457178;28;20287;-54
2021/01/09 06:13:25;;;;;;;25.85;9.57;;;;;;;-1.28;58.88;98668.25;10458738;28;20056;-55
2021/01/09 06:18:27;;;;;;;23.45;9.07;;;;;;;-1.23;58.92;98666.22;10459893;28;20822;-53
2021/01/09 06:23:28;;;;;;;24.85;9.43;;;;;;;-1.18;58.92;98659.09;10460434;28;20499;-54
2021/01/09 06:28:37;;;;;;;19.50;7.28;;;;;;;-1.17;58.48;98665.91;10455965;28;20079;-54
2021/01/09 06:33:41;;;;;;;26.05;8.35;;;;;;;-1.15;58.48;98666.66;10455452;28;20401;-53
2021/01/09 06:38:43;;;;;;;;;;;;;;;-1.14;58.79;98678.63;10456563;28;20049;-52
2021/01/09 06:43:47;;;;;;;28.45;9.15;;;;;;;-1.15;58.70;98687.28;10456391;28;20361;-53
2021/01/09 06:48:49;;;;;;;28.52;12.68;;;;;;;-1.09;58.42;98684.38;10454195;28;20048;-53
2021/01/09 06:54:25;;;;;;;22.65;10.40;;;;;;;-1.16;58.26;98680.47;10456929;28;20048;-52
2021/01/09 06:59:34;;;;;;;24.77;9.93;;;;;;;-1.24;58.28;98680.06;10455701;28;20056;-52
2021/01/09 07:04:49;;;;;;;28.67;10.93;;;;;;;-1.19;58.39;98688.38;10455392;28;20052;-53
2021/01/09 07:09:51;;;;;;;22.70;9.05;;;;;;;-1.10;57.90;98681.91;10456734;28;20505;-53
2021/01/09 07:14:58;;;;;;;19.83;8.25;;;;;;;-1.23;57.37;98686.88;10455705;28;20041;-53
2021/01/09 07:20:04;;;;;;;23.85;11.15;;;;;;;-1.31;57.62;98683.88;10453908;28;20064;-52
2021/01/09 07:25:08;;;;;;;21.58;9.70;;;;;;;-1.32;57.79;98684.81;10456278;28;20140;-53
2021/01/09 07:30:17;;;;;;;14.57;5.45;;;;;;;-1.29;58.23;98694.91;10457056;28;20118;-53
2021/01/09 07:35:21;;;;;;;24.77;10.48;;;;;;;-1.25;57.72;98694.69;10455572;28;20488;-52
2021/01/09 07:40:23;;;;;;;26.80;9.75;;;;;;;-1.25;57.91;98699.03;10464360;28;20060;-54
2021/01/09 07:45:31;;;;;;;18.33;7.83;;;;;;;-1.29;57.90;98700.94;10471487;28;20067;-54
2021/01/09 07:50:43;;;;;;;20.75;9.50;;;;;;;-1.05;58.01;98701.34;10464090;28;20059;-54
2021/01/09 07:55:45;;;;;;;21.90;8.63;;;;;;;-0.88;57.31;98694.47;10463298;28;20239;-53
2021/01/09 08:00:48;;;;;;;20.17;9.13;;;;;;;-0.91;56.87;98698.03;10462608;28;20474;-54
2021/01/09 08:05:50;;;;;;;19.85;10.52;;;;;;;-1.01;57.20;98708.03;10462179;28;20059;-56
2021/01/09 08:10:52;;;;;;;16.20;6.30;;;;;;;-0.93;56.89;98690.38;10462714;28;20422;-54
2021/01/09 08:15:55;;;;;;;24.73;9.82;;;;;;;-1.11;57.24;98687.97;10461958;28;20049;-53
2021/01/09 08:20:58;;;;;;;22.85;9.55;;;;;;;-1.05;56.82;98678.13;10464886;28;20057;-52
2021/01/09 08:26:11;;;;;;;24.25;10.52;;;;;;;-1.05;56.49;98680.72;10460818;28;20533;-53
2021/01/09 08:31:14;;;;;;;26.42;10.18;;;;;;;-1.22;57.06;98666.16;10459966;28;20055;-52
2021/01/09 08:36:16;;;;;;;22.13;9.60;;;;;;;-1.13;57.03;98661.44;10460821;28;20079;-53
2021/01/09 08:41:17;;;;;;;23.45;8.90;;;;;;;-0.95;57.07;98653.53;10460443;28;20055;-53
2021/01/09 08:46:20;;;;;;;23.52;8.93;;;;;;;-0.85;56.51;98647.88;10459891;28;20489;-53
2021/01/09 08:51:23;;;;;;;22.85;9.52;;;;;;;-0.94;57.04;98647.44;10460051;28;20542;-53
2021/01/09 08:56:27;;;;;;;28.23;10.23;;;;;;;-0.86;57.16;98628.13;10461962;28;20056;-52
2021/01/09 09:01:34;;;;;;;26.63;9.63;;;;;;;-0.90;57.45;98642.94;10459817;28;20111;-52
2021/01/09 09:06:38;;;;;;;21.20;8.43;;;;;;;-0.79;57.01;98634.63;10459120;28;20044;-53
2021/01/09 09:11:41;;;;;;;24.67;9.55;;;;;;;-0.85;57.26;98634.97;10459479;28;20040;-53
2021/01/09 09:16:44;;;;;;;22.70;9.93;;;;;;;-0.59;56.87;98631.72;10460037;28;20076;-52
2021/01/09 09:21:49;;;;;;;21.08;9.65;;;;;;;-0.62;56.96;98631.06;10460865;28;20041;-53
2021/01/09 09:26:50;;;;;;;;;;;;;;;-0.75;56.94;98626.59;10461656;28;20396;-53
2021/01/09 09:31:53;;;;;;;22.65;9.20;;;;;;;-0.94;57.03;98620.81;10459274;28;19971;-53
2021/01/09 09:37:00;;;;;;;19.70;8.70;;;;;;;-0.97;57.20;98616.66;10460098;28;20055;-52
2021/01/09 09:42:03;;;;;;;17.67;7.22;;;;;;;-1.08;57.46;98608.66;10459125;28;20041;-54
2021/01/09 09:47:08;;;;;;;20.90;9.13;;;;;;;-1.01;57.51;98604.84;10459477;28;20046;-52
2021/01/09 09:52:16;;;;;;;21.63;8.77;;;;;;;-0.97;57.12;98596.00;10460452;28;20049;-52
2021/01/09 09:57:20;;;;;;;26.95;11.23;;;;;;;-0.97;56.80;98590.84;10459034;28;20432;-52
2021/01/09 10:02:23;;;;;;;24.25;10.35;;;;;;;-0.80;56.80;98592.50;10457891;28;20057;-52
2021/01/09 10:07:25;;;;;;;23.20;10.53;;;;;;;-0.88;56.52;98588.69;10459100;28;20379;-53
2021/01/09 10:12:26;;;;;;;22.23;10.10;;;;;;;-0.87;57.01;98580.03;10459861;28;20053;-54
2021/01/09 10:17:29;;;;;;;28.58;10.38;;;;;;;-0.83;57.64;98576.34;10459760;28;20057;-55
2021/01/09 10:22:31;;;;;;;30.33;12.95;;;;;;;-0.86;57.49;98571.34;10457658;28;20401;-55
2021/01/09 10:27:32;;;;;;;18.23;8.35;;;;;;;-0.79;57.13;98562.38;10457560;28;20045;-54
2021/01/09 10:32:35;;;;;;;17.17;5.93;;;;;;;-0.76;57.47;98557.03;10455161;28;20060;-55
2021/01/09 10:37:37;;;;;;;16.57;7.67;;;;;;;-0.80;57.66;98552.94;10457503;28;20055;-53
2021/01/09 10:42:39;;;;;;;21.45;9.38;;;;;;;-0.89;57.66;98551.75;10456722;28;20102;-55
2021/01/09 10:47:41;;;;;;;22.30;9.00;;;;;;;-0.91;57.91;98547.59;10457209;28;20136;-53
2021/01/09 10:52:43;;;;;;;21.57;9.17;;;;;;;-0.90;57.78;98549.22;10457475;28;20496;-54
2021/01/09 10:57:45;;;;;;;17.40;7.20;;;;;;;-0.78;57.94;98553.69;10456765;28;20591;-53
2021/01/09 11:02:48;;;;;;;19.70;9.05;;;;;;;-0.84;57.70;98546.31;10457136;28;20111;-54
2021/01/09 11:07:49;;;;;;;27.25;9.02;;;;;;;-0.86;57.94;98540.38;10457144;28;20428;-55
2021/01/09 11:12:51;;;;;;;26.92;12.25;;;;;;;-0.79;57.46;98544.31;10462118;28;20049;-54
2021/01/09 11:17:53;;;;;;;21.48;9.40;;;;;;;-0.94;57.10;98533.09;10470011;28;20488;-54
2021/01/09 11:22:55;;;;;;;24.15;10.43;;;;;;;-0.91;57.30;98543.25;10470239;28;20049;-54
2021/01/09 11:27:58;;;;;;;25.67;11.20;;;;;;;-0.95;56.86;98531.44;10469704;28;20048;-54
2021/01/09 11:33:00;;;;;;;18.85;8.00;;;;;;;-0.99;56.94;98533.34;10469116;28;20073;-54
2021/01/09 11:38:02;;;;;;;23.48;8.68;;;;;;;-1.18;57.11;98535.31;10470499;28;20083;-55
2021/01/09 11:43:03;;;;;;;24.08;10.93;;;;;;;-1.21;57.23;98518.25;10469435;28;20190;-55
2021/01/09 11:48:07;;;;;;;23.98;10.70;;;;;;;-1.18;56.84;98543.88;10470134;28;20049;-54
2021/01/09 11:53:09;;;;;;;18.00;9.93;;;;;;;-1.17;56.96;98536.97;10471060;28;20055;-53
2021/01/09 11:58:10;;;;;;;24.60;9.80;;;;;;;-1.18;57.01;98530.97;10445084;28;20056;-53
2021/01/09 12:03:13;;;;;;;21.63;9.65;;;;;;;-1.10;56.77;98532.31;10431132;28;20061;-56
2021/01/09 12:08:15;;;;;;;27.85;9.38;;;;;;;-1.13;56.45;98528.16;10427638;28;20503;-55
2021/01/09 12:13:17;;;;;;;24.52;10.57;;;;;;;-1.23;56.48;98527.84;10427036;28;20122;-55
2021/01/09 12:18:21;;;;;;;21.52;8.38;;;;;;;-1.34;56.65;98525.03;10431498;28;20087;-54
2021/01/09 12:23:23;;;;;;;23.30;10.18;;;;;;;-1.46;56.82;98533.44;10466126;28;20053;-55
2021/01/09 12:28:24;;;;;;;21.38;10.38;;;;;;;-1.33;56.85;98533.59;10461808;28;20184;-55
2021/01/09 12:33:27;;;;;;;22.35;9.63;;;;;;;-1.26;56.90;98532.31;10462155;28;20057;-56
2021/01/09 12:38:29;;;;;;;24.77;12.15;;;;;;;-1.30;56.54;98534.25;10462715;28;20143;-56
2021/01/09 12:43:30;;;;;;;20.00;8.32;;;;;;;-1.42;56.67;98532.34;10463078;28;20401;-55
2021/01/09 12:48:33;;;;;;;19.98;8.98;;;;;;;-1.49;56.94;98542.16;10462068;28;20052;-56
2021/01/09 12:53:35;;;;;;;27.63;11.45;;;;;;;-1.48;57.08;98541.25;10461119;28;20045;-56
2021/01/09 12:58:36;;;;;;;21.23;8.30;;;;;;;-1.63;57.25;98540.34;10461584;28;20500;-56
2021/01/09 13:03:39;;;;;;;20.05;9.45;;;;;;;-1.58;57.43;98540.09;10459913;28;20070;-55
2021/01/09 13:08:40;;;;;;;21.83;10.15;;;;;;;-1.48;57.16;98543.84;10460752;28;20135;-54
2021/01/09 13:13:44;;;;;;;24.58;10.05;;;;;;;-1.45;57.09;98543.69;10459626;28;20440;-55
2021/01/09 13:18:46;;;;;;;21.30;9.02;;;;;;;-1.45;57.01;98535.94;10466235;28;20144;-55
2021/01/09 13:23:48;;;;;;;22.88;10.32;;;;;;;-1.51;57.40;98528.53;10462938;28;20576;-54
2021/01/09 13:28:50;;;;;;;25.30;9.70;;;;;;;-1.40;57.39;98522.78;10460976;28;20045;-55
2021/01/09 13:33:52;;;;;;;27.73;10.35;;;;;;;-1.32;57.42;98519.78;10460474;28;20385;-55
2021/01/09 13:38:54;;;;;;;26.02;9.98;;;;;;;-1.32;57.69;98517.22;10458144;28;20126;-54
2021/01/09 13:43:56;;;;;;;23.73;9.00;;;;;;;-1.27;57.60;98525.50;10458862;28;20102;-54
2021/01/09 13:49:01;;;;;;;24.80;9.90;;;;;;;-1.27;57.85;98525.50;10458976;28;20052;-57
2021/01/09 13:54:04;;;;;;;24.75;9.93;;;;;;;-1.36;57.68;98526.84;10458944;28;20386;-54
2021/01/09 13:59:08;;;;;;;22.08;10.48;;;;;;;-1.37;57.65;98519.22;10458661;28;20061;-54
2021/01/09 14:04:11;;;;;;;29.20;11.43;;;;;;;-1.40;58.05;98517.63;10459022;28;20057;-55
2021/01/09 14:09:12;;;;;;;24.70;9.93;;;;;;;-1.33;58.49;98512.97;10459772;28;20547;-55
2021/01/09 14:14:15;;;;;;;26.88;10.50;;;;;;;-1.28;58.50;98508.38;10459836;28;20145;-55
2021/01/09 14:19:17;;;;;;;26.70;10.73;;;;;;;-1.40;58.28;98509.91;10459361;28;20056;-55
2021/01/09 14:24:21;;;;;;;18.15;7.80;;;;;;;-1.49;58.78;98506.06;10457367;28;20072;-54
2021/01/09 14:29:24;;;;;;;27.38;11.02;;;;;;;-1.48;59.27;98512.91;10457242;28;20079;-54
2021/01/09 14:34:27;;;;;;;22.52;10.13;;;;;;;-1.43;59.42;98505.72;10454985;28;20044;-54
2021/01/09 14:39:29;;;;;;;24.50;10.57;;;;;;;-1.44;59.35;98511.81;10457158;28;20056;-55
2021/01/09 14:44:31;;;;;;;14.63;5.90;;;;;;;-1.47;59.29;98504.25;10459028;28;20037;-55
2021/01/09 14:49:33;;;;;;;23.02;9.18;;;;;;;-1.50;59.32;98498.44;10457820;28;20068;-54
2021/01/09 14:54:35;;;;;;;22.70;9.10;;;;;;;-1.49;59.38;98500.91;10456438;28;20051;-56
2021/01/09 14:59:36;;;;;;;21.50;8.95;;;;;;;-1.46;59.34;98492.19;10455559;28;20079;-54
2021/01/09 15:04:39;;;;;;;20.52;8.57;;;;;;;-1.44;59.25;98483.47;10457019;28;20052;-54
2021/01/09 15:09:45;;;;;;;19.55;7.93;;;;;;;-1.44;59.22;98483.47;10460210;28;20053;-57
2021/01/09 15:14:47;;;;;;;27.88;10.43;;;;;;;-1.49;59.27;98488.03;10458359;28;20045;-54
2021/01/09 15:19:49;;;;;;;24.02;11.20;;;;;;;-1.48;59.23;98491.44;10456299;28;20053;-54
2021/01/09 15:24:52;;;;;;;23.98;9.75;;;;;;;-1.45;59.26;98492.13;10456398;28;20045;-54
2021/01/09 15:29:54;;;;;;;17.70;7.68;;;;;;;-1.46;59.05;98485.28;10455641;28;20053;-55
2021/01/09 15:34:57;;;;;;;20.02;8.73;;;;;;;-1.44;59.29;98483.47;10454725;28;20472;-55
2021/01/09 15:39:58;;;;;;;26.75;11.00;;;;;;;-1.41;59.13;98488.44;10454312;28;20056;-55
2021/01/09 15:45:00;;;;;;;27.23;9.13;;;;;;;-1.46;58.83;98484.47;10455591;28;20045;-54
2021/01/09 15:50:03;;;;;;;26.35;11.20;;;;;;;-1.55;58.75;98490.13;10437637;28;20137;-55
2021/01/09 15:55:06;;;;;;;19.85;8.80;;;;;;;-1.49;59.02;98487.22;10433822;28;20417;-55
2021/01/09 16:00:09;;;;;;;18.33;8.33;;;;;;;-1.43;59.20;98489.44;10458849;28;20061;-54
2021/01/09 16:05:12;;;;;;;22.00;9.53;;;;;;;-1.40;58.87;98484.13;10462128;28;20126;-55
2021/01/09 16:10:13;;;;;;;22.87;10.33;;;;;;;-1.35;58.66;98491.59;10465239;28;20378;-54
2021/01/09 16:15:16;;;;;;;23.20;9.70;;;;;;;-1.36;58.90;98489.94;10463287;28;20052;-55
2021/01/09 16:20:19;;;;;;;25.67;10.13;;;;;;;-1.38;58.66;98491.78;10462507;28;20481;-55
2021/01/09 16:25:21;;;;;;;23.75;9.63;;;;;;;-1.52;58.98;98498.50;10462854;28;20141;-56
2021/01/09 16:30:23;;;;;;;22.67;8.90;;;;;;;-1.64;59.50;98494.03;10462727;28;20053;-54
2021/01/09 16:35:27;;;;;;;23.55;11.38;;;;;;;-1.64;59.47;98494.03;10461969;28;20082;-54
2021/01/09 16:40:30;;;;;;;25.42;10.00;;;;;;;-1.64;60.02;98486.31;10461359;28;20104;-54
2021/01/09 16:45:33;;;;;;;23.65;8.32;;;;;;;-1.54;59.81;98486.63;10461866;28;20076;-54
2021/01/09 16:50:35;;;;;;;23.55;9.35;;;;;;;-1.51;59.63;98487.31;10462203;28;20094;-56
2021/01/09 16:55:37;;;;;;;20.75;9.25;;;;;;;-1.52;59.32;98501.09;10463785;28;20084;-60
2021/01/09 17:00:39;;;;;;;19.35;7.50;;;;;;;-1.53;59.69;98488.31;10466985;28;20067;-55
2021/01/09 17:05:41;;;;;;;23.77;10.05;;;;;;;-1.69;59.49;98493.47;10461820;28;20470;-56
2021/01/09 17:10:44;;;;;;;25.83;11.40;;;;;;;-1.73;59.55;98481.66;10461849;28;20064;-55
2021/01/09 17:15:46;;;;;;;24.65;9.13;;;;;;;-1.71;59.66;98479.81;10443491;28;20507;-55
2021/01/09 17:20:48;;;;;;;24.55;8.73;;;;;;;-1.67;59.53;98491.63;10460414;28;20186;-55
2021/01/09 17:25:50;;;;;;;22.03;9.80;;;;;;;-1.75;59.33;98489.47;10459235;28;20073;-54
2021/01/09 17:30:52;;;;;;;25.33;9.25;;;;;;;-1.72;59.19;98488.47;10459906;28;20390;-55
2021/01/09 17:35:55;;;;;;;21.60;9.65;;;;;;;-1.71;59.03;98480.66;10459865;28;20079;-55
2021/01/09 17:40:56;;;;;;;23.17;8.32;;;;;;;-1.73;59.22;98476.50;10459136;28;20048;-54
2021/01/09 17:45:58;;;;;;;20.83;10.00;;;;;;;-1.72;59.03;98484.16;10460086;28;20147;-55
2021/01/09 17:51:01;;;;;;;26.52;9.90;;;;;;;-1.76;59.17;98481.81;10459126;28;20044;-56
2021/01/09 17:56:06;;;;;;;21.20;9.60;;;;;;;-1.82;59.38;98477.00;10460177;28;20104;-54
2021/01/09 18:01:08;;;;;;;24.42;10.00;;;;;;;-1.77;59.01;98481.00;10458104;28;20371;-54
2021/01/09 18:06:11;;;;;;;28.38;9.98;;;;;;;-1.65;58.81;98464.03;10459353;28;20041;-55
2021/01/09 18:11:14;;;;;;;25.77;9.65;;;;;;;-1.72;58.72;98468.69;10459867;28;20057;-59
2021/01/09 18:16:23;;;;;;;25.13;10.77;;;;;;;-1.76;58.89;98461.22;10463394;28;20482;-55
2021/01/09 18:21:31;;;;;;;24.98;10.18;;;;;;;-1.79;59.29;98461.38;10458067;28;20190;-54
2021/01/09 18:26:37;;;;;;;19.25;6.75;;;;;;;-1.87;58.75;98464.38;10457926;28;20386;-55
2021/01/09 18:31:51;;;;;;;20.02;9.13;;;;;;;-1.90;59.52;98474.84;10457310;28;20181;-55
2021/01/09 18:36:56;;;;;;;22.15;7.85;;;;;;;-1.89;59.31;98467.03;10455829;28;20159;-54
2021/01/09 18:42:00;;;;;;;27.23;8.68;;;;;;;-1.89;59.18;98461.88;10456150;28;20045;-54
2021/01/09 18:47:04;;;;;;;19.60;7.03;;;;;;;-1.89;59.18;98456.72;10456994;28;20045;-55
2021/01/09 18:52:12;;;;;;;19.67;8.23;;;;;;;-1.90;58.85;98460.22;10456257;28;20091;-54
2021/01/09 18:57:19;;;;;;;16.15;6.68;;;;;;;-1.99;58.87;98462.47;10456747;28;20049;-59
2021/01/09 19:02:22;;;;;;;;;;;;;;;-2.04;59.17;98467.84;10460441;28;20107;-55
2021/01/09 19:07:25;;;;;;;19.65;8.57;;;;;;;-2.05;58.86;98461.06;10457912;28;19924;-58
2021/01/09 19:12:31;;;;;;;19.40;8.05;;;;;;;-1.94;59.16;98463.03;10456270;28;20048;-57
2021/01/09 19:17:42;;;;;;;17.67;9.35;;;;;;;-1.88;58.77;98467.84;10456523;28;20499;-59
2021/01/09 19:22:50;;;;;;;19.70;8.45;;;;;;;-1.99;59.38;98455.56;10442647;28;20045;-56
2021/01/09 19:27:55;;;;;;;22.70;9.48;;;;;;;-1.99;59.30;98457.31;10456137;28;20057;-60
2021/01/09 19:33:06;;;;;;;19.85;6.85;;;;;;;-2.05;59.37;98457.66;10458689;28;20084;-54
2021/01/09 19:38:09;;;;;;;20.30;9.65;;;;;;;-1.94;59.14;98453.59;10464954;28;20106;-55
2021/01/09 19:43:12;;;;;;;13.50;4.85;;;;;;;-1.96;59.18;98455.41;10462888;28;20117;-56
2021/01/09 19:48:21;;;;;;;15.00;5.95;;;;;;;-1.97;59.23;98453.75;10464373;28;20140;-55
2021/01/09 19:53:27;;;;;;;23.10;8.13;;;;;;;-1.99;59.02;98455.56;10462821;28;20052;-55
2021/01/09 19:58:29;;;;;;;21.33;8.10;;;;;;;-2.00;59.03;98459.06;10465162;28;20148;-55
2021/01/09 20:03:31;;;;;;;20.65;8.57;;;;;;;-2.06;59.16;98455.97;10463321;28;20060;-54
2021/01/09 20:08:41;;;;;;;13.05;5.13;;;;;;;-2.17;59.19;98452.22;10462043;28;20087;-54
2021/01/09 20:13:45;;;;;;;19.88;9.80;;;;;;;-2.22;59.04;98453.38;10462677;28;20168;-54
2021/01/09 20:18:47;;;;;;;25.08;9.73;;;;;;;-2.10;59.12;98460.44;10445556;28;20142;-56
2021/01/09 20:23:50;;;;;;;17.98;9.07;;;;;;;-2.00;58.98;98458.22;10461612;28;20045;-54
2021/01/09 20:28:53;;;;;;;20.50;9.52;;;;;;;-2.07;58.88;98460.28;10462488;28;20504;-55
2021/01/09 20:33:55;;;;;;;18.33;8.23;;;;;;;-2.09;59.12;98459.56;10461439;28;20045;-58
2021/01/09 20:38:58;;;;;;;23.48;10.10;;;;;;;-2.09;59.04;98452.66;10460850;28;20200;-54
2021/01/09 20:44:01;;;;;;;17.85;8.23;;;;;;;-2.04;58.95;98460.13;10462420;28;20049;-72
2021/01/09 20:49:03;;;;;;;27.67;11.20;;;;;;;-2.12;58.80;98460.56;10468807;28;20145;-55
2021/01/09 20:54:06;;;;;;;22.38;8.02;;;;;;;-2.14;58.91;98457.22;10462083;28;20118;-54
2021/01/09 20:59:08;;;;;;;19.27;7.50;;;;;;;-2.22;59.02;98448.22;10461829;28;20072;-54
2021/01/09 21:04:10;;;;;;;16.30;7.10;;;;;;;-2.37;59.17;98437.00;10463550;28;20088;-56
2021/01/09 21:09:13;;;;;;;21.75;9.30;;;;;;;-2.37;59.33;98440.44;10441569;28;20054;-55
2021/01/09 21:14:15;;;;;;;16.30;7.40;;;;;;;-2.34;58.91;98445.41;10454351;28;20106;-55
2021/01/09 21:19:17;;;;;;;20.85;8.32;;;;;;;-2.34;59.33;98440.25;10460497;28;20126;-54
2021/01/09 21:24:19;;;;;;;21.20;8.90;;;;;;;-2.17;59.34;98438.53;10462102;28;20037;-56
2021/01/09 21:29:21;;;;;;;23.97;8.80;;;;;;;-2.09;59.25;98433.81;10465730;28;20053;-62
2021/01/09 21:34:23;;;;;;;19.45;8.55;;;;;;;-2.11;59.43;98420.19;10462305;28;20455;-54
2021/01/09 21:39:28;;;;;;;22.45;8.05;;;;;;;-2.11;59.73;98433.06;10460753;28;20112;-57
2021/01/09 21:44:30;;;;;;;19.15;7.82;;;;;;;-2.11;59.80;98425.31;10461232;28;20045;-53
2021/01/09 21:49:32;;;;;;;23.08;9.40;;;;;;;-2.17;59.61;98430.81;10458142;28;20059;-53
2021/01/09 21:54:35;;;;;;;15.82;7.88;;;;;;;-2.21;59.62;98419.03;10442961;28;20474;-53
2021/01/09 21:59:38;;;;;;;11.07;4.38;;;;;;;-2.21;59.96;98425.00;10458050;28;20061;-53
2021/01/09 22:04:40;;;;;;;23.80;8.50;;;;;;;-2.24;59.90;98421.75;10458559;28;20079;-53
2021/01/09 22:09:42;;;;;;;35.65;13.48;;;;;;;-2.24;60.22;98424.34;10458507;28;20143;-54
2021/01/09 22:14:45;;;;;;;10.27;4.43;;;;;;;-2.11;59.90;98418.44;10458920;28;20049;-55
2021/01/09 22:19:47;;;;;;;20.13;9.07;;;;;;;-2.13;60.05;98422.00;10458081;28;20053;-53
2021/01/09 22:24:49;;;;;;;15.98;7.63;;;;;;;-2.09;60.18;98429.47;10456880;28;20041;-54
2021/01/09 22:29:51;;;;;;;16.42;6.45;;;;;;;-2.01;60.35;98420.50;10459368;28;20068;-54
2021/01/09 22:34:52;;;;;;;25.02;9.50;;;;;;;-1.97;60.14;98425.41;10459158;28;20049;-55
2021/01/09 22:39:55;;;;;;;22.65;9.10;;;;;;;-1.89;59.99;98425.81;10461678;28;20057;-53
2021/01/09 22:44:57;;;;;;;21.65;8.30;;;;;;;-1.96;59.86;98414.19;10457903;28;20057;-53
2021/01/09 22:49:58;;;;;;;21.30;8.90;;;;;;;-2.03;60.03;98423.19;10457578;28;20405;-55
2021/01/09 22:55:01;;;;;;;19.45;8.63;;;;;;;-2.03;60.18;98424.91;10457950;28;20463;-55
2021/01/09 23:00:17;;;;;;;24.50;10.23;;;;;;;-1.97;60.33;98422.00;10458117;28;20489;-54
2021/01/09 23:05:19;;;;;;;16.80;7.30;;;;;;;-1.91;60.04;98416.50;10457590;28;20370;-54
2021/01/09 23:10:24;;;;;;;15.65;6.72;;;;;;;-2.01;59.90;98416.19;10457616;28;20135;-53